Terminal Aerodrome Forecast
Issued by NWS Lake Charles, LA

Current Version | Previous Version | Text Only | Print | Product List | Glossary On
Versions: 1 2 3 4 5 6 7 8 9 10 11 12 13 14 15 16 17
000
FTUS44 KLCH 231138
TAFLFT
TAF
KLFT 231138Z 2312/2412 28010G18KT P6SM +RA VCTS FEW014 SCT035CB
      TEMPO 2312/2315 2SM TS BKN025CB
     FM231500 25007KT P6SM VCTS SCT025CB BKN250
     FM240200 VRB05KT P6SM FEW050 BKN250=

USA.gov is the U.S. government's official web portal to all federal, state and local government web resources and services.